首页
METAR-TAF:

METAR-TAF

机场 :

Khon Kaen, 泰国

纬度: 16-26N, 经度: 102-50E, 海拔: 165米

当前天气观测

该预报发布于49分钟前的00:00 UTC
风速1节,风向西
温度 23°C
湿度 73%
气压 1012 hPa
能見度: 6000

METAR: VTUK 220000Z 26001KT 6000 NSC 23/18 Q1012 NOSIG

时间: 07:49 (00:49 UTC)

预报

该预报发布于1小时和49分钟前的23:00 UTC
预报有效从22日的 00点(UTC)到 22日的 24点(UTC)
风速2节,风向多变
能見度: 6000
成为
从 22日的 02点(UTC)到 22日的 04点(UTC)
风速5节,风向西转西南
能見度: 8000
少量云层高于3500英尺
散云层高于10000英尺

TAF: VTUK 212300Z 2200/2224 VRB02KT 6000 NSC BECMG 2202/2204 25005KT 8000 FEW035 SCT100

超过4000个机场的气象观测和天气预报(METAR&TAF报告)。

可查询的气象台以黄色和红色小点在地图上表示。

将鼠标移到小点上方,可查看气象台名称。

然后点击查看天气观测和预报。

如需切换地图:点击带黑十字的绿色按钮放大地图;点击带横线的绿色按钮缩小地图;或者点击绿色箭头查看邻近地区的地图。


METAR-TAF: